TGW674 WSSS-VTCC
Flight info
| Callsign | TGW674 |
|---|---|
| Flight time | 2h 42m |
| Altitude | 36000 |
| Route | VMR9B VMR B469 VPK M751 BKK A464 ENBAT MARNI2A |
| Aircraft | A21N/M-SDE2E3FGHIRWXY/LB1 |
Departure
| Time | 2026-04-22 10:49 |
|---|---|
| Airport | Singapore Changi Airport (WSSS) |
Arrival
| Time | 2026-04-22 13:31 |
|---|---|
| Airport | Chiang Mai International Airport (VTCC) |
| Time | Latitude | Longitude | Altitude | Speed | Heading |
|---|---|---|---|---|---|
| 2026-04-22 10:11 | 1.36062 | 103.99249 | 28 ft | 0 kts | 293° |
| 2026-04-22 10:33 | 1.36058 | 103.99256 | 28 ft | 2 kts | 293° |
| 2026-04-22 10:33 | 1.36052 | 103.99270 | 28 ft | 2 kts | 293° |
| 2026-04-22 10:34 | 1.36047 | 103.99283 | 28 ft | 2 kts | 289° |
| 2026-04-22 10:34 | 1.36044 | 103.99298 | 28 ft | 2 kts | 270° |
| 2026-04-22 10:34 | 1.36044 | 103.99308 | 28 ft | 2 kts | 261° |
| 2026-04-22 10:34 | 1.36051 | 103.99327 | 28 ft | 2 kts | 241° |
| 2026-04-22 10:35 | 1.36058 | 103.99339 | 28 ft | 2 kts | 227° |
| 2026-04-22 10:35 | 1.36069 | 103.99348 | 28 ft | 2 kts | 213° |
| 2026-04-22 10:35 | 1.36077 | 103.99352 | 28 ft | 0 kts | 205° |
| 2026-04-22 10:35 | 1.36083 | 103.99355 | 28 ft | 0 kts | 202° |
| 2026-04-22 10:36 | 1.36084 | 103.99355 | 28 ft | 0 kts | 202° |
| 2026-04-22 10:36 | 1.36083 | 103.99355 | 28 ft | 0 kts | 202° |
| 2026-04-22 10:39 | 1.36075 | 103.99352 | 28 ft | 2 kts | 202° |
| 2026-04-22 10:39 | 1.36054 | 103.99345 | 28 ft | 4 kts | 192° |
| 2026-04-22 10:39 | 1.36021 | 103.99353 | 28 ft | 6 kts | 138° |
| 2026-04-22 10:39 | 1.35997 | 103.99397 | 28 ft | 8 kts | 114° |
| 2026-04-22 10:40 | 1.35981 | 103.99435 | 28 ft | 9 kts | 113° |
| 2026-04-22 10:40 | 1.35952 | 103.99503 | 28 ft | 11 kts | 113° |
| 2026-04-22 10:40 | 1.35911 | 103.99573 | 28 ft | 7 kts | 163° |
| 2026-04-22 10:40 | 1.35851 | 103.99559 | 28 ft | 9 kts | 202° |
| 2026-04-22 10:41 | 1.35807 | 103.99541 | 28 ft | 11 kts | 203° |
| 2026-04-22 10:41 | 1.35704 | 103.99497 | 28 ft | 13 kts | 203° |
| 2026-04-22 10:41 | 1.35615 | 103.99460 | 28 ft | 14 kts | 202° |
| 2026-04-22 10:41 | 1.35519 | 103.99420 | 28 ft | 15 kts | 202° |
| 2026-04-22 10:42 | 1.35414 | 103.99377 | 28 ft | 16 kts | 202° |
| 2026-04-22 10:42 | 1.35302 | 103.99329 | 28 ft | 17 kts | 203° |
| 2026-04-22 10:42 | 1.35187 | 103.99281 | 28 ft | 18 kts | 203° |
| 2026-04-22 10:42 | 1.35068 | 103.99229 | 28 ft | 19 kts | 203° |
| 2026-04-22 10:43 | 1.34986 | 103.99195 | 28 ft | 19 kts | 203° |
| 2026-04-22 10:43 | 1.34816 | 103.99123 | 28 ft | 20 kts | 203° |
| 2026-04-22 10:43 | 1.34730 | 103.99086 | 28 ft | 20 kts | 203° |
| 2026-04-22 10:43 | 1.34557 | 103.99013 | 28 ft | 21 kts | 203° |
| 2026-04-22 10:44 | 1.34426 | 103.98958 | 28 ft | 21 kts | 203° |
| 2026-04-22 10:44 | 1.34288 | 103.98899 | 28 ft | 21 kts | 202° |
| 2026-04-22 10:44 | 1.34150 | 103.98841 | 28 ft | 21 kts | 203° |
| 2026-04-22 10:44 | 1.34011 | 103.98782 | 28 ft | 22 kts | 203° |
| 2026-04-22 10:45 | 1.33870 | 103.98723 | 28 ft | 22 kts | 203° |
| 2026-04-22 10:45 | 1.33777 | 103.98684 | 28 ft | 22 kts | 202° |
| 2026-04-22 10:45 | 1.33587 | 103.98603 | 28 ft | 22 kts | 203° |
| 2026-04-22 10:45 | 1.33444 | 103.98543 | 28 ft | 22 kts | 202° |
| 2026-04-22 10:46 | 1.33347 | 103.98502 | 28 ft | 22 kts | 203° |
| 2026-04-22 10:46 | 1.33154 | 103.98421 | 28 ft | 22 kts | 203° |
| 2026-04-22 10:46 | 1.33041 | 103.98373 | 28 ft | 13 kts | 203° |
| 2026-04-22 10:46 | 1.32989 | 103.98355 | 28 ft | 7 kts | 183° |
| 2026-04-22 10:47 | 1.32935 | 103.98395 | 28 ft | 9 kts | 116° |
| 2026-04-22 10:47 | 1.32907 | 103.98460 | 28 ft | 9 kts | 110° |
| 2026-04-22 10:47 | 1.32908 | 103.98505 | 28 ft | 10 kts | 57° |
| 2026-04-22 10:47 | 1.32950 | 103.98531 | 28 ft | 0 kts | 23° |
| 2026-04-22 10:48 | 1.32987 | 103.98546 | 28 ft | 29 kts | 23° |
| 2026-04-22 10:48 | 1.33407 | 103.98724 | 28 ft | 99 kts | 23° |
| 2026-04-22 10:48 | 1.34234 | 103.99071 | 29 ft | 156 kts | 23° |
| 2026-04-22 10:48 | 1.35359 | 103.99548 | 179 ft | 188 kts | 23° |
| 2026-04-22 10:49 | 1.36516 | 104.00042 | 965 ft | 175 kts | 24° |
| 2026-04-22 10:49 | 1.37590 | 104.00504 | 1774 ft | 165 kts | 25° |
| 2026-04-22 10:49 | 1.38625 | 104.00939 | 2184 ft | 169 kts | 24° |
| 2026-04-22 10:49 | 1.39754 | 104.01407 | 2448 ft | 182 kts | 24° |
| 2026-04-22 10:50 | 1.40550 | 104.01738 | 2631 ft | 192 kts | 24° |
| 2026-04-22 10:50 | 1.41806 | 104.02262 | 2906 ft | 206 kts | 24° |
| 2026-04-22 10:50 | 1.43172 | 104.02836 | 3180 ft | 223 kts | 24° |
| 2026-04-22 10:50 | 1.44682 | 104.03471 | 3428 ft | 244 kts | 23° |
| 2026-04-22 10:51 | 1.46849 | 104.04383 | 3953 ft | 263 kts | 23° |
| 2026-04-22 10:51 | 1.48005 | 104.04841 | 4370 ft | 266 kts | 17° |
| 2026-04-22 10:51 | 1.50436 | 104.04809 | 5216 ft | 271 kts | 340° |
| 2026-04-22 10:51 | 1.52114 | 104.03982 | 5922 ft | 272 kts | 331° |
| 2026-04-22 10:52 | 1.53794 | 104.03050 | 6588 ft | 276 kts | 331° |
| 2026-04-22 10:52 | 1.54916 | 104.02424 | 7040 ft | 278 kts | 331° |
| 2026-04-22 10:52 | 1.56602 | 104.01492 | 7712 ft | 280 kts | 331° |
| 2026-04-22 10:52 | 1.58141 | 104.00649 | 8288 ft | 283 kts | 331° |
| 2026-04-22 10:53 | 1.59910 | 103.99688 | 8907 ft | 286 kts | 331° |
| 2026-04-22 10:53 | 1.61646 | 103.98747 | 9494 ft | 288 kts | 331° |
| 2026-04-22 10:53 | 1.63434 | 103.97780 | 10065 ft | 292 kts | 331° |
| 2026-04-22 10:53 | 1.65211 | 103.96819 | 10480 ft | 300 kts | 331° |
| 2026-04-22 10:54 | 1.67756 | 103.95443 | 10821 ft | 319 kts | 331° |
| 2026-04-22 10:54 | 1.69745 | 103.94370 | 11245 ft | 327 kts | 331° |
| 2026-04-22 10:54 | 1.71054 | 103.93665 | 11607 ft | 328 kts | 331° |
| 2026-04-22 10:54 | 1.73045 | 103.92591 | 12156 ft | 330 kts | 331° |
| 2026-04-22 10:55 | 1.75157 | 103.91649 | 12726 ft | 333 kts | 340° |
| 2026-04-22 10:55 | 1.77410 | 103.91097 | 13261 ft | 336 kts | 351° |
| 2026-04-22 10:55 | 1.80560 | 103.90820 | 13901 ft | 341 kts | 356° |
| 2026-04-22 10:55 | 1.82932 | 103.90682 | 14359 ft | 344 kts | 356° |
| 2026-04-22 10:56 | 1.85330 | 103.90546 | 14822 ft | 347 kts | 356° |
| 2026-04-22 10:56 | 1.87554 | 103.90416 | 15243 ft | 349 kts | 356° |
| 2026-04-22 10:56 | 1.89179 | 103.90317 | 15520 ft | 352 kts | 356° |
| 2026-04-22 10:56 | 1.92480 | 103.90113 | 16081 ft | 356 kts | 356° |
| 2026-04-22 10:57 | 1.94124 | 103.90009 | 16356 ft | 358 kts | 356° |
| 2026-04-22 10:57 | 1.96635 | 103.89852 | 16732 ft | 362 kts | 356° |
| 2026-04-22 10:57 | 1.99160 | 103.89692 | 17144 ft | 364 kts | 356° |
| 2026-04-22 10:57 | 2.02550 | 103.89477 | 17682 ft | 367 kts | 356° |
| 2026-04-22 10:58 | 2.04288 | 103.89366 | 17944 ft | 369 kts | 357° |
| 2026-04-22 10:58 | 2.06864 | 103.89202 | 18318 ft | 372 kts | 357° |
| 2026-04-22 10:58 | 2.09461 | 103.89037 | 18690 ft | 374 kts | 357° |
| 2026-04-22 10:58 | 2.12938 | 103.88817 | 19173 ft | 377 kts | 357° |
| 2026-04-22 10:59 | 2.15553 | 103.88651 | 19527 ft | 379 kts | 357° |
| 2026-04-22 10:59 | 2.17320 | 103.88539 | 19763 ft | 380 kts | 357° |
| 2026-04-22 10:59 | 2.19969 | 103.88370 | 20101 ft | 383 kts | 357° |
| 2026-04-22 10:59 | 2.23543 | 103.88142 | 20540 ft | 386 kts | 357° |
| 2026-04-22 11:00 | 2.25312 | 103.88030 | 20753 ft | 388 kts | 357° |
| 2026-04-22 11:00 | 2.28003 | 103.87858 | 21072 ft | 390 kts | 357° |
| 2026-04-22 11:00 | 2.30739 | 103.87684 | 21383 ft | 392 kts | 357° |
| 2026-04-22 11:00 | 2.34374 | 103.87452 | 21792 ft | 395 kts | 357° |
| 2026-04-22 11:01 | 2.36211 | 103.87306 | 21996 ft | 397 kts | 354° |
| 2026-04-22 11:01 | 2.38937 | 103.86813 | 22297 ft | 400 kts | 346° |
| 2026-04-22 11:01 | 2.42432 | 103.85597 | 22736 ft | 402 kts | 337° |
| 2026-04-22 11:01 | 2.44170 | 103.84821 | 22961 ft | 403 kts | 336° |
| 2026-04-22 11:02 | 2.46692 | 103.83651 | 23264 ft | 405 kts | 335° |
| 2026-04-22 11:02 | 2.49277 | 103.82446 | 23579 ft | 406 kts | 335° |
| 2026-04-22 11:02 | 2.51845 | 103.81254 | 23891 ft | 408 kts | 335° |
| 2026-04-22 11:02 | 2.55270 | 103.79675 | 24304 ft | 410 kts | 336° |
| 2026-04-22 11:03 | 2.57024 | 103.78870 | 24504 ft | 411 kts | 336° |
| 2026-04-22 11:03 | 2.59617 | 103.77681 | 24806 ft | 412 kts | 336° |
| 2026-04-22 11:03 | 2.62209 | 103.76495 | 25101 ft | 413 kts | 336° |
| 2026-04-22 11:03 | 2.65699 | 103.74895 | 25495 ft | 415 kts | 336° |
| 2026-04-22 11:04 | 2.68349 | 103.73683 | 25785 ft | 416 kts | 336° |
| 2026-04-22 11:04 | 2.70122 | 103.72872 | 25985 ft | 417 kts | 336° |
| 2026-04-22 11:04 | 2.72765 | 103.71663 | 26273 ft | 418 kts | 336° |
| 2026-04-22 11:04 | 2.75430 | 103.70461 | 26540 ft | 419 kts | 336° |
| 2026-04-22 11:05 | 2.78981 | 103.68875 | 26884 ft | 421 kts | 336° |
| 2026-04-22 11:05 | 2.80786 | 103.68070 | 27060 ft | 422 kts | 336° |
| 2026-04-22 11:05 | 2.84354 | 103.66473 | 27419 ft | 423 kts | 336° |
| 2026-04-22 11:05 | 2.86144 | 103.65672 | 27597 ft | 424 kts | 336° |
| 2026-04-22 11:06 | 2.89736 | 103.64063 | 27947 ft | 425 kts | 336° |
| 2026-04-22 11:06 | 2.91558 | 103.63251 | 28129 ft | 426 kts | 336° |
| 2026-04-22 11:06 | 2.94269 | 103.62046 | 28388 ft | 427 kts | 336° |
| 2026-04-22 11:06 | 2.96984 | 103.60841 | 28614 ft | 429 kts | 336° |
| 2026-04-22 11:07 | 2.99730 | 103.59618 | 28832 ft | 431 kts | 336° |
| 2026-04-22 11:07 | 3.02474 | 103.58396 | 29047 ft | 433 kts | 336° |
| 2026-04-22 11:07 | 3.05262 | 103.57156 | 29284 ft | 435 kts | 336° |
| 2026-04-22 11:07 | 3.08949 | 103.55512 | 29613 ft | 437 kts | 336° |
| 2026-04-22 11:08 | 3.10830 | 103.54675 | 29774 ft | 438 kts | 336° |
| 2026-04-22 11:08 | 3.14535 | 103.53032 | 30083 ft | 440 kts | 336° |
| 2026-04-22 11:08 | 3.16402 | 103.52203 | 30244 ft | 441 kts | 336° |
| 2026-04-22 11:08 | 3.19233 | 103.50937 | 30479 ft | 442 kts | 336° |
| 2026-04-22 11:09 | 3.22032 | 103.49680 | 30711 ft | 444 kts | 336° |
| 2026-04-22 11:09 | 3.24846 | 103.48414 | 30939 ft | 445 kts | 336° |
| 2026-04-22 11:09 | 3.27688 | 103.47134 | 31161 ft | 447 kts | 336° |
| 2026-04-22 11:09 | 3.31520 | 103.45406 | 31462 ft | 449 kts | 336° |
| 2026-04-22 11:10 | 3.34359 | 103.44128 | 31678 ft | 450 kts | 337° |
| 2026-04-22 11:10 | 3.36282 | 103.43263 | 31820 ft | 451 kts | 337° |
| 2026-04-22 11:10 | 3.39155 | 103.42000 | 32032 ft | 452 kts | 339° |
| 2026-04-22 11:10 | 3.42092 | 103.40820 | 32311 ft | 452 kts | 339° |
| 2026-04-22 11:11 | 3.44979 | 103.39678 | 32627 ft | 451 kts | 339° |
| 2026-04-22 11:11 | 3.47925 | 103.38515 | 32977 ft | 450 kts | 339° |
| 2026-04-22 11:11 | 3.50852 | 103.37357 | 33299 ft | 449 kts | 339° |
| 2026-04-22 11:11 | 3.53757 | 103.36207 | 33605 ft | 449 kts | 339° |
| 2026-04-22 11:12 | 3.56638 | 103.35064 | 33907 ft | 449 kts | 339° |
| 2026-04-22 11:12 | 3.59553 | 103.33899 | 34190 ft | 449 kts | 339° |
| 2026-04-22 11:12 | 3.62485 | 103.32720 | 34416 ft | 451 kts | 339° |
| 2026-04-22 11:12 | 3.65419 | 103.31541 | 34613 ft | 453 kts | 339° |
| 2026-04-22 11:13 | 3.69325 | 103.29979 | 34888 ft | 455 kts | 339° |
| 2026-04-22 11:13 | 3.71286 | 103.29196 | 35034 ft | 455 kts | 339° |
| 2026-04-22 11:13 | 3.75252 | 103.27615 | 35306 ft | 457 kts | 339° |
| 2026-04-22 11:13 | 3.78201 | 103.26440 | 35459 ft | 459 kts | 339° |
| 2026-04-22 11:14 | 3.80213 | 103.25639 | 35577 ft | 460 kts | 339° |
| 2026-04-22 11:14 | 3.84172 | 103.24064 | 35770 ft | 462 kts | 339° |
| 2026-04-22 11:14 | 3.87142 | 103.22882 | 35771 ft | 463 kts | 339° |
| 2026-04-22 11:15 | 3.92169 | 103.20883 | 35781 ft | 463 kts | 339° |
| 2026-04-22 11:15 | 3.98190 | 103.18488 | 35784 ft | 463 kts | 339° |
| 2026-04-22 11:16 | 4.04160 | 103.16115 | 35778 ft | 463 kts | 339° |
| 2026-04-22 11:16 | 4.11201 | 103.13315 | 35775 ft | 463 kts | 339° |
| 2026-04-22 11:17 | 4.17197 | 103.10939 | 35778 ft | 462 kts | 339° |
| 2026-04-22 11:17 | 4.22212 | 103.08948 | 35782 ft | 462 kts | 339° |
| 2026-04-22 11:18 | 4.28208 | 103.06565 | 35785 ft | 462 kts | 339° |
| 2026-04-22 11:18 | 4.34202 | 103.04180 | 35794 ft | 462 kts | 339° |
| 2026-04-22 11:19 | 4.41171 | 103.01406 | 35805 ft | 462 kts | 339° |
| 2026-04-22 11:19 | 4.46155 | 102.99422 | 35811 ft | 461 kts | 339° |
| 2026-04-22 11:20 | 4.52131 | 102.97041 | 35816 ft | 461 kts | 339° |
| 2026-04-22 11:20 | 4.59104 | 102.94260 | 35819 ft | 461 kts | 339° |
| 2026-04-22 11:21 | 4.65084 | 102.91878 | 35819 ft | 460 kts | 339° |
| 2026-04-22 11:21 | 4.70041 | 102.89902 | 35823 ft | 459 kts | 339° |
| 2026-04-22 11:22 | 4.75994 | 102.87530 | 35824 ft | 459 kts | 339° |
| 2026-04-22 11:22 | 4.82930 | 102.84763 | 35827 ft | 459 kts | 339° |
| 2026-04-22 11:23 | 4.88869 | 102.82397 | 35820 ft | 459 kts | 339° |
| 2026-04-22 11:23 | 4.93837 | 102.80422 | 35813 ft | 459 kts | 339° |
| 2026-04-22 11:24 | 5.00798 | 102.77657 | 35807 ft | 458 kts | 339° |
| 2026-04-22 11:24 | 5.05747 | 102.75688 | 35807 ft | 457 kts | 339° |
| 2026-04-22 11:25 | 5.11686 | 102.73327 | 35810 ft | 457 kts | 339° |
| 2026-04-22 11:25 | 5.18581 | 102.70595 | 35814 ft | 457 kts | 339° |
| 2026-04-22 11:26 | 5.23515 | 102.68623 | 35816 ft | 457 kts | 339° |
| 2026-04-22 11:26 | 5.29426 | 102.66229 | 35820 ft | 457 kts | 339° |
| 2026-04-22 11:27 | 5.35362 | 102.63828 | 35813 ft | 457 kts | 339° |
| 2026-04-22 11:27 | 5.41275 | 102.61468 | 35805 ft | 457 kts | 339° |
| 2026-04-22 11:28 | 5.47225 | 102.59095 | 35794 ft | 457 kts | 339° |
| 2026-04-22 11:28 | 5.53135 | 102.56734 | 35787 ft | 457 kts | 339° |
| 2026-04-22 11:29 | 5.59055 | 102.54375 | 35784 ft | 456 kts | 339° |
| 2026-04-22 11:29 | 5.64990 | 102.52004 | 35783 ft | 456 kts | 339° |
| 2026-04-22 11:30 | 5.70910 | 102.49639 | 35777 ft | 456 kts | 339° |
| 2026-04-22 11:30 | 5.76802 | 102.47282 | 35776 ft | 456 kts | 340° |
| 2026-04-22 11:31 | 5.82750 | 102.44900 | 35768 ft | 456 kts | 340° |
| 2026-04-22 11:31 | 5.88659 | 102.42535 | 35767 ft | 456 kts | 340° |
| 2026-04-22 11:32 | 5.94545 | 102.40178 | 35770 ft | 455 kts | 340° |
| 2026-04-22 11:32 | 6.00465 | 102.37807 | 35768 ft | 456 kts | 340° |
| 2026-04-22 11:33 | 6.06348 | 102.35447 | 35769 ft | 456 kts | 340° |
| 2026-04-22 11:33 | 6.12275 | 102.33053 | 35768 ft | 456 kts | 340° |
| 2026-04-22 11:34 | 6.18245 | 102.30837 | 35768 ft | 455 kts | 344° |
| 2026-04-22 11:34 | 6.24297 | 102.29000 | 35768 ft | 454 kts | 345° |
| 2026-04-22 11:35 | 6.30367 | 102.27178 | 35768 ft | 454 kts | 345° |
| 2026-04-22 11:35 | 6.37458 | 102.25039 | 35769 ft | 454 kts | 345° |
| 2026-04-22 11:36 | 6.43509 | 102.23211 | 35769 ft | 454 kts | 345° |
| 2026-04-22 11:36 | 6.48548 | 102.21690 | 35770 ft | 454 kts | 345° |
| 2026-04-22 11:37 | 6.54654 | 102.19849 | 35771 ft | 454 kts | 345° |
| 2026-04-22 11:37 | 6.60693 | 102.18025 | 35770 ft | 454 kts | 345° |
| 2026-04-22 11:38 | 6.67792 | 102.15880 | 35771 ft | 454 kts | 345° |
| 2026-04-22 11:38 | 6.76854 | 102.13145 | 35764 ft | 454 kts | 345° |
| 2026-04-22 11:39 | 6.81953 | 102.11603 | 35758 ft | 454 kts | 345° |
| 2026-04-22 11:39 | 6.89036 | 102.09463 | 35755 ft | 455 kts | 345° |
| 2026-04-22 11:40 | 6.94099 | 102.07932 | 35756 ft | 455 kts | 346° |
| 2026-04-22 11:40 | 7.00181 | 102.06092 | 35762 ft | 454 kts | 346° |
| 2026-04-22 11:41 | 7.07244 | 102.03956 | 35770 ft | 454 kts | 346° |
| 2026-04-22 11:41 | 7.12328 | 102.02419 | 35769 ft | 454 kts | 346° |
| 2026-04-22 11:42 | 7.18364 | 102.00600 | 35770 ft | 454 kts | 346° |
| 2026-04-22 11:42 | 7.25485 | 101.98448 | 35770 ft | 455 kts | 346° |
| 2026-04-22 11:43 | 7.30549 | 101.96915 | 35769 ft | 454 kts | 346° |
| 2026-04-22 11:43 | 7.36573 | 101.95091 | 35770 ft | 453 kts | 346° |
| 2026-04-22 11:44 | 7.43671 | 101.92941 | 35769 ft | 452 kts | 346° |
| 2026-04-22 11:44 | 7.48707 | 101.91413 | 35768 ft | 452 kts | 346° |
| 2026-04-22 11:45 | 7.55778 | 101.89271 | 35768 ft | 453 kts | 346° |
| 2026-04-22 11:45 | 7.61787 | 101.87449 | 35769 ft | 453 kts | 346° |
| 2026-04-22 11:46 | 7.66837 | 101.85917 | 35770 ft | 452 kts | 346° |
| 2026-04-22 11:46 | 7.73904 | 101.83772 | 35768 ft | 451 kts | 346° |
| 2026-04-22 11:47 | 7.78908 | 101.82252 | 35766 ft | 451 kts | 346° |
| 2026-04-22 11:47 | 7.84966 | 101.80411 | 35766 ft | 450 kts | 346° |
| 2026-04-22 11:48 | 7.90960 | 101.78593 | 35765 ft | 450 kts | 346° |
| 2026-04-22 11:48 | 7.96988 | 101.76760 | 35765 ft | 450 kts | 346° |
| 2026-04-22 11:49 | 8.02996 | 101.74934 | 35765 ft | 450 kts | 346° |
| 2026-04-22 11:49 | 8.09036 | 101.73177 | 35766 ft | 449 kts | 347° |
| 2026-04-22 11:50 | 8.15049 | 101.71483 | 35767 ft | 449 kts | 347° |
| 2026-04-22 11:50 | 8.21103 | 101.69772 | 35767 ft | 449 kts | 347° |
| 2026-04-22 11:51 | 8.27148 | 101.68056 | 35767 ft | 449 kts | 347° |
| 2026-04-22 11:51 | 8.33136 | 101.66351 | 35764 ft | 449 kts | 347° |
| 2026-04-22 11:52 | 8.39209 | 101.64622 | 35777 ft | 449 kts | 347° |
| 2026-04-22 11:52 | 8.46226 | 101.62620 | 35782 ft | 449 kts | 347° |
| 2026-04-22 11:53 | 8.51239 | 101.61190 | 35778 ft | 448 kts | 347° |
| 2026-04-22 11:53 | 8.57276 | 101.59467 | 35775 ft | 448 kts | 347° |
| 2026-04-22 11:54 | 8.64317 | 101.57458 | 35774 ft | 449 kts | 347° |
| 2026-04-22 11:54 | 8.69333 | 101.56027 | 35772 ft | 449 kts | 347° |
| 2026-04-22 11:55 | 8.76358 | 101.54018 | 35773 ft | 449 kts | 347° |
| 2026-04-22 11:55 | 8.81338 | 101.52595 | 35772 ft | 448 kts | 347° |
| 2026-04-22 11:56 | 8.87397 | 101.50860 | 35772 ft | 448 kts | 347° |
| 2026-04-22 11:56 | 8.93403 | 101.49146 | 35771 ft | 448 kts | 347° |
| 2026-04-22 11:57 | 8.99446 | 101.47426 | 35771 ft | 449 kts | 347° |
| 2026-04-22 11:57 | 9.05464 | 101.45712 | 35769 ft | 449 kts | 347° |
| 2026-04-22 11:58 | 9.12541 | 101.43692 | 35771 ft | 449 kts | 347° |
| 2026-04-22 11:58 | 9.18536 | 101.41986 | 35770 ft | 449 kts | 347° |
| 2026-04-22 11:59 | 9.24585 | 101.40260 | 35768 ft | 449 kts | 347° |
| 2026-04-22 11:59 | 9.29630 | 101.38819 | 35766 ft | 449 kts | 347° |
| 2026-04-22 12:00 | 9.35660 | 101.37094 | 35765 ft | 449 kts | 347° |
| 2026-04-22 12:00 | 9.41675 | 101.35375 | 35759 ft | 449 kts | 347° |
| 2026-04-22 12:01 | 9.48741 | 101.33328 | 35756 ft | 450 kts | 346° |
| 2026-04-22 12:01 | 9.53784 | 101.31863 | 35756 ft | 450 kts | 346° |
| 2026-04-22 12:02 | 9.60827 | 101.29836 | 35758 ft | 450 kts | 346° |
| 2026-04-22 12:02 | 9.66851 | 101.28109 | 35764 ft | 450 kts | 346° |
| 2026-04-22 12:03 | 9.72936 | 101.26364 | 35768 ft | 450 kts | 346° |
| 2026-04-22 12:03 | 9.77946 | 101.24927 | 35770 ft | 450 kts | 346° |
| 2026-04-22 12:04 | 9.84029 | 101.23182 | 35773 ft | 450 kts | 346° |
| 2026-04-22 12:04 | 9.90078 | 101.21446 | 35771 ft | 450 kts | 346° |
| 2026-04-22 12:05 | 9.96111 | 101.19715 | 35770 ft | 450 kts | 346° |
| 2026-04-22 12:05 | 10.03143 | 101.17696 | 35771 ft | 450 kts | 346° |
| 2026-04-22 12:06 | 10.09238 | 101.15945 | 35773 ft | 450 kts | 346° |
| 2026-04-22 12:06 | 10.14231 | 101.14517 | 35769 ft | 451 kts | 346° |
| 2026-04-22 12:07 | 10.21325 | 101.12483 | 35769 ft | 451 kts | 346° |
| 2026-04-22 12:07 | 10.27382 | 101.10735 | 35769 ft | 451 kts | 346° |
| 2026-04-22 12:08 | 10.33456 | 101.08979 | 35768 ft | 451 kts | 346° |
| 2026-04-22 12:08 | 10.38479 | 101.07528 | 35764 ft | 451 kts | 346° |
| 2026-04-22 12:09 | 10.44548 | 101.05775 | 35764 ft | 451 kts | 346° |
| 2026-04-22 12:09 | 10.50629 | 101.04015 | 35762 ft | 451 kts | 346° |
| 2026-04-22 12:10 | 10.56706 | 101.02258 | 35756 ft | 451 kts | 346° |
| 2026-04-22 12:10 | 10.63768 | 101.00214 | 35759 ft | 451 kts | 346° |
| 2026-04-22 12:11 | 10.68815 | 100.98756 | 35756 ft | 451 kts | 346° |
| 2026-04-22 12:11 | 10.74887 | 100.96997 | 35757 ft | 452 kts | 346° |
| 2026-04-22 12:12 | 10.80966 | 100.95235 | 35757 ft | 452 kts | 346° |
| 2026-04-22 12:12 | 10.87044 | 100.93475 | 35754 ft | 452 kts | 346° |
| 2026-04-22 12:13 | 10.94159 | 100.91413 | 35752 ft | 452 kts | 346° |
| 2026-04-22 12:13 | 10.99187 | 100.89955 | 35752 ft | 452 kts | 346° |
| 2026-04-22 12:14 | 11.05258 | 100.88103 | 35750 ft | 452 kts | 344° |
| 2026-04-22 12:14 | 11.11315 | 100.86184 | 35750 ft | 452 kts | 344° |
| 2026-04-22 12:15 | 11.17345 | 100.84289 | 35749 ft | 453 kts | 344° |
| 2026-04-22 12:15 | 11.24434 | 100.82063 | 35749 ft | 452 kts | 344° |
| 2026-04-22 12:16 | 11.29465 | 100.80480 | 35750 ft | 452 kts | 344° |
| 2026-04-22 12:16 | 11.35542 | 100.78570 | 35754 ft | 452 kts | 344° |
| 2026-04-22 12:17 | 11.41590 | 100.76666 | 35761 ft | 452 kts | 344° |
| 2026-04-22 12:17 | 11.47631 | 100.74764 | 35760 ft | 452 kts | 344° |
| 2026-04-22 12:18 | 11.53687 | 100.72856 | 35758 ft | 452 kts | 344° |
| 2026-04-22 12:18 | 11.60732 | 100.70636 | 35748 ft | 453 kts | 344° |
| 2026-04-22 12:19 | 11.65774 | 100.69046 | 35740 ft | 453 kts | 344° |
| 2026-04-22 12:19 | 11.72830 | 100.66819 | 35738 ft | 452 kts | 344° |
| 2026-04-22 12:20 | 11.77875 | 100.65227 | 35739 ft | 452 kts | 344° |
| 2026-04-22 12:20 | 11.83921 | 100.63317 | 35736 ft | 453 kts | 344° |
| 2026-04-22 12:21 | 11.91002 | 100.61079 | 35738 ft | 453 kts | 344° |
| 2026-04-22 12:21 | 11.97132 | 100.59400 | 35742 ft | 452 kts | 349° |
| 2026-04-22 12:22 | 12.02326 | 100.58534 | 35747 ft | 452 kts | 354° |
| 2026-04-22 12:22 | 12.09655 | 100.58160 | 35748 ft | 451 kts | 1° |
| 2026-04-22 12:23 | 12.15978 | 100.58186 | 35751 ft | 450 kts | 1° |
| 2026-04-22 12:23 | 12.21243 | 100.58184 | 35749 ft | 450 kts | 1° |
| 2026-04-22 12:24 | 12.28645 | 100.58179 | 35748 ft | 450 kts | 1° |
| 2026-04-22 12:24 | 12.33906 | 100.58175 | 35748 ft | 450 kts | 1° |
| 2026-04-22 12:25 | 12.40204 | 100.58171 | 35747 ft | 450 kts | 1° |
| 2026-04-22 12:25 | 12.46331 | 100.58171 | 35747 ft | 450 kts | 1° |
| 2026-04-22 12:26 | 12.52619 | 100.58170 | 35746 ft | 451 kts | 1° |
| 2026-04-22 12:26 | 12.58952 | 100.58170 | 35749 ft | 451 kts | 1° |
| 2026-04-22 12:27 | 12.65249 | 100.58171 | 35749 ft | 450 kts | 1° |
| 2026-04-22 12:27 | 12.71599 | 100.58170 | 35750 ft | 450 kts | 1° |
| 2026-04-22 12:28 | 12.78947 | 100.58169 | 35751 ft | 450 kts | 1° |
| 2026-04-22 12:28 | 12.84217 | 100.58172 | 35751 ft | 450 kts | 1° |
| 2026-04-22 12:29 | 12.90547 | 100.58170 | 35751 ft | 451 kts | 1° |
| 2026-04-22 12:29 | 12.97918 | 100.58171 | 35748 ft | 451 kts | 1° |
| 2026-04-22 12:30 | 13.07387 | 100.58170 | 35740 ft | 451 kts | 1° |
| 2026-04-22 12:31 | 13.12677 | 100.58170 | 35738 ft | 450 kts | 1° |
| 2026-04-22 12:31 | 13.18892 | 100.58169 | 35732 ft | 451 kts | 0° |
| 2026-04-22 12:32 | 13.26274 | 100.58169 | 35726 ft | 451 kts | 0° |
| 2026-04-22 12:32 | 13.34690 | 100.58168 | 35723 ft | 451 kts | 0° |
| 2026-04-22 12:33 | 13.41061 | 100.58293 | 35722 ft | 451 kts | 2° |
| 2026-04-22 12:33 | 13.47196 | 100.58477 | 35722 ft | 451 kts | 2° |
| 2026-04-22 12:34 | 13.53540 | 100.58656 | 35721 ft | 451 kts | 2° |
| 2026-04-22 12:34 | 13.60946 | 100.58855 | 35723 ft | 452 kts | 2° |
| 2026-04-22 12:35 | 13.66200 | 100.58995 | 35722 ft | 452 kts | 2° |
| 2026-04-22 12:35 | 13.72597 | 100.59166 | 35723 ft | 452 kts | 2° |
| 2026-04-22 12:36 | 13.78805 | 100.59331 | 35723 ft | 452 kts | 1° |
| 2026-04-22 12:36 | 13.86219 | 100.59166 | 35727 ft | 452 kts | 355° |
| 2026-04-22 12:37 | 13.91500 | 100.58440 | 35728 ft | 452 kts | 349° |
| 2026-04-22 12:37 | 13.97707 | 100.56889 | 35723 ft | 453 kts | 343° |
| 2026-04-22 12:38 | 14.04839 | 100.54544 | 35723 ft | 453 kts | 342° |
| 2026-04-22 12:38 | 14.09854 | 100.52878 | 35721 ft | 453 kts | 342° |
| 2026-04-22 12:39 | 14.18851 | 100.49913 | 35716 ft | 453 kts | 342° |
| 2026-04-22 12:40 | 14.24976 | 100.47894 | 35711 ft | 453 kts | 342° |
| 2026-04-22 12:40 | 14.31088 | 100.45874 | 35710 ft | 453 kts | 342° |
| 2026-04-22 12:41 | 14.38200 | 100.43523 | 35701 ft | 453 kts | 342° |
| 2026-04-22 12:41 | 14.43258 | 100.41849 | 35696 ft | 452 kts | 342° |
| 2026-04-22 12:42 | 14.49334 | 100.39836 | 35693 ft | 452 kts | 342° |
| 2026-04-22 12:42 | 14.56403 | 100.37495 | 35688 ft | 452 kts | 342° |
| 2026-04-22 12:43 | 14.62479 | 100.35480 | 35690 ft | 452 kts | 342° |
| 2026-04-22 12:43 | 14.68564 | 100.33444 | 35688 ft | 452 kts | 341° |
| 2026-04-22 12:44 | 14.74603 | 100.31417 | 35687 ft | 452 kts | 341° |
| 2026-04-22 12:44 | 14.79680 | 100.29726 | 35682 ft | 451 kts | 342° |
| 2026-04-22 12:45 | 14.85582 | 100.27768 | 35680 ft | 450 kts | 342° |
| 2026-04-22 12:45 | 14.92614 | 100.25432 | 35676 ft | 450 kts | 342° |
| 2026-04-22 12:46 | 14.97636 | 100.23759 | 35675 ft | 449 kts | 342° |
| 2026-04-22 12:46 | 15.03653 | 100.21755 | 35675 ft | 449 kts | 341° |
| 2026-04-22 12:47 | 15.09715 | 100.19739 | 35671 ft | 450 kts | 341° |
| 2026-04-22 12:47 | 15.16799 | 100.17390 | 35667 ft | 450 kts | 342° |
| 2026-04-22 12:48 | 15.21854 | 100.15711 | 35667 ft | 451 kts | 342° |
| 2026-04-22 12:48 | 15.27871 | 100.13711 | 35669 ft | 449 kts | 342° |
| 2026-04-22 12:49 | 15.33900 | 100.11704 | 35667 ft | 449 kts | 341° |
| 2026-04-22 12:49 | 15.39963 | 100.09683 | 35668 ft | 449 kts | 341° |
| 2026-04-22 12:50 | 15.46001 | 100.07667 | 35668 ft | 450 kts | 341° |
| 2026-04-22 12:50 | 15.51976 | 100.05673 | 35666 ft | 450 kts | 341° |
| 2026-04-22 12:51 | 15.57970 | 100.03670 | 35664 ft | 450 kts | 341° |
| 2026-04-22 12:51 | 15.65029 | 100.01308 | 35664 ft | 450 kts | 341° |
| 2026-04-22 12:52 | 15.70077 | 99.99621 | 35674 ft | 450 kts | 341° |
| 2026-04-22 12:52 | 15.77107 | 99.97266 | 35665 ft | 450 kts | 341° |
| 2026-04-22 12:53 | 15.82129 | 99.95585 | 35669 ft | 450 kts | 341° |
| 2026-04-22 12:53 | 15.89153 | 99.93231 | 35672 ft | 450 kts | 341° |
| 2026-04-22 12:54 | 15.94182 | 99.91546 | 35685 ft | 450 kts | 341° |
| 2026-04-22 12:54 | 16.01205 | 99.89188 | 35689 ft | 450 kts | 341° |
| 2026-04-22 12:55 | 16.06231 | 99.87501 | 35688 ft | 450 kts | 341° |
| 2026-04-22 12:55 | 16.12042 | 99.85550 | 35683 ft | 449 kts | 341° |
| 2026-04-22 12:56 | 16.18084 | 99.83529 | 35684 ft | 449 kts | 341° |
| 2026-04-22 12:56 | 16.24124 | 99.81501 | 35686 ft | 450 kts | 341° |
| 2026-04-22 12:57 | 16.31141 | 99.79138 | 35683 ft | 451 kts | 341° |
| 2026-04-22 12:57 | 16.37161 | 99.77116 | 35689 ft | 450 kts | 341° |
| 2026-04-22 12:58 | 16.42222 | 99.75440 | 35700 ft | 450 kts | 341° |
| 2026-04-22 12:58 | 16.48235 | 99.73453 | 35692 ft | 450 kts | 341° |
| 2026-04-22 12:59 | 16.55269 | 99.71122 | 35689 ft | 450 kts | 341° |
| 2026-04-22 12:59 | 16.60296 | 99.69454 | 35688 ft | 450 kts | 341° |
| 2026-04-22 13:00 | 16.66364 | 99.67439 | 35690 ft | 451 kts | 341° |
| 2026-04-22 13:00 | 16.72387 | 99.65439 | 35684 ft | 451 kts | 341° |
| 2026-04-22 13:01 | 16.78452 | 99.63423 | 35678 ft | 451 kts | 340° |
| 2026-04-22 13:01 | 16.84273 | 99.61488 | 35674 ft | 451 kts | 340° |
| 2026-04-22 13:02 | 16.90291 | 99.59486 | 35682 ft | 451 kts | 340° |
| 2026-04-22 13:02 | 16.96296 | 99.57485 | 35499 ft | 450 kts | 340° |
| 2026-04-22 13:02 | 16.99291 | 99.56488 | 34742 ft | 453 kts | 340° |
| 2026-04-22 13:03 | 17.03348 | 99.55135 | 33219 ft | 464 kts | 340° |
| 2026-04-22 13:03 | 17.05390 | 99.54453 | 32444 ft | 469 kts | 340° |
| 2026-04-22 13:03 | 17.08509 | 99.53408 | 31379 ft | 475 kts | 340° |
| 2026-04-22 13:03 | 17.12732 | 99.52000 | 30485 ft | 470 kts | 341° |
| 2026-04-22 13:04 | 17.14815 | 99.51309 | 30145 ft | 466 kts | 341° |
| 2026-04-22 13:04 | 17.18910 | 99.49950 | 29508 ft | 457 kts | 341° |
| 2026-04-22 13:04 | 17.21928 | 99.48946 | 29042 ft | 450 kts | 341° |
| 2026-04-22 13:04 | 17.23908 | 99.48286 | 28740 ft | 446 kts | 341° |
| 2026-04-22 13:05 | 17.26804 | 99.47319 | 28304 ft | 439 kts | 341° |
| 2026-04-22 13:05 | 17.30654 | 99.46032 | 27696 ft | 432 kts | 341° |
| 2026-04-22 13:05 | 17.33514 | 99.45076 | 27237 ft | 427 kts | 341° |
| 2026-04-22 13:05 | 17.35406 | 99.44442 | 26932 ft | 424 kts | 341° |
| 2026-04-22 13:06 | 17.38224 | 99.43498 | 26495 ft | 419 kts | 341° |
| 2026-04-22 13:06 | 17.40993 | 99.42570 | 26120 ft | 413 kts | 341° |
| 2026-04-22 13:06 | 17.44582 | 99.41366 | 25573 ft | 407 kts | 341° |
| 2026-04-22 13:06 | 17.47291 | 99.40457 | 25124 ft | 404 kts | 341° |
| 2026-04-22 13:07 | 17.49975 | 99.39554 | 24676 ft | 400 kts | 340° |
| 2026-04-22 13:07 | 17.52663 | 99.38638 | 24223 ft | 397 kts | 340° |
| 2026-04-22 13:07 | 17.55261 | 99.37746 | 23774 ft | 395 kts | 340° |
| 2026-04-22 13:07 | 17.57031 | 99.37140 | 23464 ft | 393 kts | 340° |
| 2026-04-22 13:08 | 17.59604 | 99.36257 | 23014 ft | 390 kts | 340° |
| 2026-04-22 13:08 | 17.62206 | 99.35364 | 22559 ft | 388 kts | 340° |
| 2026-04-22 13:08 | 17.64483 | 99.34580 | 22158 ft | 385 kts | 340° |
| 2026-04-22 13:08 | 17.67179 | 99.33641 | 21696 ft | 383 kts | 339° |
| 2026-04-22 13:09 | 17.69700 | 99.32764 | 21268 ft | 381 kts | 339° |
| 2026-04-22 13:09 | 17.72220 | 99.31889 | 20841 ft | 378 kts | 340° |
| 2026-04-22 13:09 | 17.75544 | 99.30742 | 20278 ft | 374 kts | 340° |
| 2026-04-22 13:09 | 17.78008 | 99.29893 | 19856 ft | 372 kts | 340° |
| 2026-04-22 13:10 | 17.79659 | 99.29324 | 19576 ft | 370 kts | 340° |
| 2026-04-22 13:10 | 17.82112 | 99.28480 | 19149 ft | 368 kts | 340° |
| 2026-04-22 13:10 | 17.84508 | 99.27657 | 18734 ft | 365 kts | 340° |
| 2026-04-22 13:10 | 17.86955 | 99.26814 | 18311 ft | 363 kts | 340° |
| 2026-04-22 13:11 | 17.89337 | 99.25995 | 17899 ft | 360 kts | 340° |
| 2026-04-22 13:11 | 17.92543 | 99.24891 | 17336 ft | 357 kts | 340° |
| 2026-04-22 13:11 | 17.94890 | 99.24082 | 16925 ft | 354 kts | 340° |
| 2026-04-22 13:11 | 17.96387 | 99.23567 | 16674 ft | 352 kts | 340° |
| 2026-04-22 13:12 | 17.99470 | 99.22505 | 16126 ft | 349 kts | 340° |
| 2026-04-22 13:12 | 18.01798 | 99.21704 | 15702 ft | 347 kts | 340° |
| 2026-04-22 13:12 | 18.03321 | 99.21179 | 15420 ft | 346 kts | 341° |
| 2026-04-22 13:12 | 18.06387 | 99.20124 | 14851 ft | 344 kts | 341° |
| 2026-04-22 13:13 | 18.07879 | 99.19610 | 14576 ft | 342 kts | 341° |
| 2026-04-22 13:13 | 18.10068 | 99.18855 | 14167 ft | 340 kts | 341° |
| 2026-04-22 13:13 | 18.13075 | 99.17822 | 13604 ft | 338 kts | 342° |
| 2026-04-22 13:13 | 18.15302 | 99.17057 | 13420 ft | 326 kts | 342° |
| 2026-04-22 13:14 | 18.17407 | 99.16356 | 13351 ft | 312 kts | 343° |
| 2026-04-22 13:14 | 18.19472 | 99.15719 | 13280 ft | 298 kts | 343° |
| 2026-04-22 13:14 | 18.21448 | 99.15127 | 13208 ft | 285 kts | 347° |
| 2026-04-22 13:14 | 18.23369 | 99.15073 | 12987 ft | 277 kts | 16° |
| 2026-04-22 13:15 | 18.24476 | 99.15614 | 12982 ft | 267 kts | 35° |
| 2026-04-22 13:15 | 18.25722 | 99.16986 | 13016 ft | 266 kts | 51° |
| 2026-04-22 13:15 | 18.26829 | 99.18574 | 13026 ft | 268 kts | 52° |
| 2026-04-22 13:15 | 18.28295 | 99.20667 | 13050 ft | 268 kts | 51° |
| 2026-04-22 13:16 | 18.29421 | 99.22244 | 13054 ft | 268 kts | 51° |
| 2026-04-22 13:16 | 18.30173 | 99.23287 | 13056 ft | 268 kts | 51° |
| 2026-04-22 13:16 | 18.31306 | 99.24854 | 13053 ft | 267 kts | 50° |
| 2026-04-22 13:16 | 18.33155 | 99.26527 | 13050 ft | 263 kts | 25° |
| 2026-04-22 13:17 | 18.34272 | 99.27022 | 13053 ft | 262 kts | 19° |
| 2026-04-22 13:17 | 18.36008 | 99.27646 | 12975 ft | 262 kts | 17° |
| 2026-04-22 13:17 | 18.38317 | 99.28449 | 12855 ft | 261 kts | 17° |
| 2026-04-22 13:17 | 18.39482 | 99.28856 | 12636 ft | 264 kts | 15° |
| 2026-04-22 13:18 | 18.41085 | 99.29168 | 12297 ft | 263 kts | 1° |
| 2026-04-22 13:18 | 18.42890 | 99.29008 | 11969 ft | 260 kts | 349° |
| 2026-04-22 13:18 | 18.44692 | 99.28642 | 11648 ft | 259 kts | 348° |
| 2026-04-22 13:18 | 18.46461 | 99.28264 | 11336 ft | 257 kts | 348° |
| 2026-04-22 13:19 | 18.48197 | 99.27863 | 11103 ft | 254 kts | 341° |
| 2026-04-22 13:19 | 18.49668 | 99.26902 | 11114 ft | 255 kts | 311° |
| 2026-04-22 13:19 | 18.50594 | 99.24661 | 11114 ft | 259 kts | 275° |
| 2026-04-22 13:19 | 18.50493 | 99.23389 | 10866 ft | 264 kts | 255° |
| 2026-04-22 13:20 | 18.49706 | 99.21637 | 10551 ft | 263 kts | 243° |
| 2026-04-22 13:20 | 18.48539 | 99.19435 | 10126 ft | 262 kts | 243° |
| 2026-04-22 13:20 | 18.47961 | 99.18328 | 9917 ft | 261 kts | 243° |
| 2026-04-22 13:20 | 18.47197 | 99.16845 | 9641 ft | 259 kts | 243° |
| 2026-04-22 13:21 | 18.46117 | 99.14729 | 9252 ft | 256 kts | 243° |
| 2026-04-22 13:21 | 18.45282 | 99.13082 | 8951 ft | 254 kts | 244° |
| 2026-04-22 13:21 | 18.44493 | 99.11525 | 8664 ft | 252 kts | 243° |
| 2026-04-22 13:21 | 18.43682 | 99.09924 | 8374 ft | 250 kts | 244° |
| 2026-04-22 13:22 | 18.43062 | 99.08257 | 8070 ft | 246 kts | 259° |
| 2026-04-22 13:22 | 18.42919 | 99.07059 | 7994 ft | 237 kts | 269° |
| 2026-04-22 13:22 | 18.42908 | 99.05338 | 7751 ft | 233 kts | 271° |
| 2026-04-22 13:22 | 18.42932 | 99.03686 | 7595 ft | 222 kts | 271° |
| 2026-04-22 13:23 | 18.42954 | 99.02108 | 7275 ft | 220 kts | 271° |
| 2026-04-22 13:23 | 18.42972 | 99.00075 | 6903 ft | 214 kts | 270° |
| 2026-04-22 13:23 | 18.42977 | 98.99053 | 6791 ft | 205 kts | 270° |
| 2026-04-22 13:23 | 18.43212 | 98.97638 | 6671 ft | 188 kts | 295° |
| 2026-04-22 13:24 | 18.44035 | 98.96749 | 6636 ft | 176 kts | 329° |
| 2026-04-22 13:24 | 18.45202 | 98.96349 | 6448 ft | 180 kts | 347° |
| 2026-04-22 13:24 | 18.46455 | 98.96225 | 6214 ft | 176 kts | 356° |
| 2026-04-22 13:24 | 18.47642 | 98.96209 | 5974 ft | 167 kts | 357° |
| 2026-04-22 13:25 | 18.48801 | 98.96212 | 5765 ft | 166 kts | 358° |
| 2026-04-22 13:25 | 18.49960 | 98.96218 | 5555 ft | 165 kts | 358° |
| 2026-04-22 13:25 | 18.51113 | 98.96223 | 5351 ft | 165 kts | 358° |
| 2026-04-22 13:25 | 18.52260 | 98.96228 | 5149 ft | 164 kts | 358° |
| 2026-04-22 13:26 | 18.53415 | 98.96231 | 4944 ft | 164 kts | 358° |
| 2026-04-22 13:26 | 18.54477 | 98.96235 | 4758 ft | 164 kts | 357° |
| 2026-04-22 13:26 | 18.55625 | 98.96238 | 4559 ft | 164 kts | 358° |
| 2026-04-22 13:26 | 18.57146 | 98.96242 | 4290 ft | 164 kts | 358° |
| 2026-04-22 13:27 | 18.57925 | 98.96243 | 4154 ft | 164 kts | 358° |
| 2026-04-22 13:27 | 18.59075 | 98.96246 | 3950 ft | 164 kts | 358° |
| 2026-04-22 13:27 | 18.60207 | 98.96249 | 3752 ft | 165 kts | 359° |
| 2026-04-22 13:27 | 18.61385 | 98.96252 | 3539 ft | 165 kts | 358° |
| 2026-04-22 13:28 | 18.62521 | 98.96255 | 3338 ft | 165 kts | 359° |
| 2026-04-22 13:28 | 18.63692 | 98.96257 | 3133 ft | 164 kts | 359° |
| 2026-04-22 13:28 | 18.64809 | 98.96260 | 2935 ft | 164 kts | 359° |
| 2026-04-22 13:28 | 18.66328 | 98.96265 | 2664 ft | 164 kts | 359° |
| 2026-04-22 13:29 | 18.67096 | 98.96266 | 2525 ft | 163 kts | 359° |
| 2026-04-22 13:29 | 18.68248 | 98.96270 | 2322 ft | 162 kts | 358° |
| 2026-04-22 13:29 | 18.69384 | 98.96272 | 2116 ft | 161 kts | 359° |
| 2026-04-22 13:29 | 18.70526 | 98.96275 | 1913 ft | 161 kts | 359° |
| 2026-04-22 13:30 | 18.72019 | 98.96280 | 1613 ft | 160 kts | 359° |
| 2026-04-22 13:30 | 18.72766 | 98.96285 | 1454 ft | 158 kts | 360° |
| 2026-04-22 13:30 | 18.73883 | 98.96290 | 1296 ft | 158 kts | 360° |
| 2026-04-22 13:30 | 18.75344 | 98.96286 | 1063 ft | 156 kts | 360° |
| 2026-04-22 13:31 | 18.76051 | 98.96294 | 1021 ft | 143 kts | 360° |
| 2026-04-22 13:31 | 18.76817 | 98.96290 | 1030 ft | 65 kts | 0° |
| 2026-04-22 13:31 | 18.77092 | 98.96290 | 1035 ft | 10 kts | 3° |
| 2026-04-22 13:31 | 18.77133 | 98.96301 | 1035 ft | 7 kts | 30° |
| 2026-04-22 13:32 | 18.77146 | 98.96352 | 1035 ft | 6 kts | 89° |
| 2026-04-22 13:32 | 18.77146 | 98.96410 | 1033 ft | 9 kts | 90° |
| 2026-04-22 13:32 | 18.77146 | 98.96439 | 1033 ft | 0 kts | 90° |
| 2026-04-22 13:33 | 18.77146 | 98.96447 | 1033 ft | 2 kts | 90° |
| 2026-04-22 13:33 | 18.77146 | 98.96481 | 1032 ft | 6 kts | 91° |
| 2026-04-22 13:33 | 18.77119 | 98.96564 | 1030 ft | 9 kts | 123° |
| 2026-04-22 13:34 | 18.77083 | 98.96602 | 1028 ft | 12 kts | 145° |
| 2026-04-22 13:34 | 18.77014 | 98.96641 | 1026 ft | 9 kts | 166° |
| 2026-04-22 13:34 | 18.76945 | 98.96649 | 1026 ft | 8 kts | 176° |
| 2026-04-22 13:34 | 18.76882 | 98.96652 | 1025 ft | 10 kts | 179° |
| 2026-04-22 13:35 | 18.76808 | 98.96653 | 1025 ft | 2 kts | 179° |
| 2026-04-22 13:35 | 18.76784 | 98.96665 | 1024 ft | 3 kts | 116° |
| 2026-04-22 13:35 | 18.76783 | 98.96684 | 1024 ft | 3 kts | 92° |
| 2026-04-22 13:35 | 18.76782 | 98.96719 | 1024 ft | 2 kts | 90° |
| 2026-04-22 13:36 | 18.76782 | 98.96725 | 1024 ft | 1 kts | 90° |
| 2026-04-22 13:36 | 18.76782 | 98.96731 | 1024 ft | 0 kts | 90° |